Time;durP1;ratioP1;P1;durP2;ratioP2;P2;SDS_P1;SDS_P2;PMS_P1;PMS_P2;Temp;Humidity;BMP_temperature;BMP_pressure;BME280_temperature;BME280_humidity;BME280_pressure;Samples;Min_cycle;Max_cycle;Signal;HPM_P1;HPM_P2
2022/04/21 00:00:15;;;;;;;4.47;3.97;;;12.70;99.00;;;;;;5120511;28;20036;-61
2022/04/21 00:02:41;;;;;;;4.85;4.20;;;12.60;99.30;;;;;;5120011;28;20032;-59
2022/04/21 00:05:09;;;;;;;6.82;4.57;;;12.60;99.40;;;;;;5119625;28;20096;-58
2022/04/21 00:07:35;;;;;;;5.50;4.00;;;12.50;99.90;;;;;;5120522;28;20497;-59
2022/04/21 00:10:05;;;;;;;5.35;4.32;;;12.50;99.90;;;;;;5102545;28;20268;-59
2022/04/21 00:12:33;;;;;;;5.45;4.40;;;12.50;99.90;;;;;;5103033;28;20039;-60
2022/04/21 00:14:59;;;;;;;5.88;4.13;;;12.40;99.90;;;;;;5119691;28;20035;-59
2022/04/21 00:17:25;;;;;;;7.30;4.40;;;12.30;99.90;;;;;;5120184;28;20407;-59
2022/04/21 00:19:51;;;;;;;4.63;4.05;;;12.20;99.90;;;;;;5120104;28;20040;-60
2022/04/21 00:25:02;;;;;;;4.35;3.92;;;12.00;99.90;;;;;;5120059;28;20023;-57
2022/04/21 00:27:28;;;;;;;8.85;4.18;;;12.00;99.90;;;;;;5120057;28;20128;-59
2022/04/21 00:29:56;;;;;;;4.40;4.00;;;11.90;99.90;;;;;;5120016;28;20059;-58
2022/04/21 00:32:21;;;;;;;5.68;4.30;;;11.90;99.90;;;;;;5102199;28;20028;-60
2022/04/21 00:34:47;;;;;;;5.80;4.13;;;11.90;99.90;;;;;;5119188;28;20089;-58
2022/04/21 00:37:13;;;;;;;4.90;4.07;;;11.80;99.90;;;;;;5119915;28;20059;-58
2022/04/21 00:39:39;;;;;;;6.70;4.28;;;11.80;99.90;;;;;;5118985;28;20036;-58
2022/04/21 00:42:05;;;;;;;5.63;4.32;;;11.80;99.90;;;;;;5119050;28;20035;-58
2022/04/21 00:44:31;;;;;;;7.00;4.60;;;11.70;99.90;;;;;;5119629;28;20032;-59
2022/04/21 00:47:02;;;;;;;5.07;4.40;;;11.70;99.90;;;;;;5118353;28;20077;-58
2022/04/21 00:49:30;;;;;;;5.13;4.50;;;11.70;99.90;;;;;;5119495;28;20080;-58
2022/04/21 00:51:58;;;;;;;6.15;4.72;;;11.70;99.90;;;;;;5119551;28;20106;-58
2022/04/21 00:54:23;;;;;;;5.80;4.65;;;11.60;99.90;;;;;;5119327;28;20103;-59
2022/04/21 00:56:50;;;;;;;5.78;4.50;;;11.60;99.90;;;;;;5119571;28;20115;-58
2022/04/21 00:59:16;;;;;;;7.85;4.85;;;11.50;99.90;;;;;;5118486;28;20102;-58
2022/04/21 01:04:27;;;;;;;8.18;5.13;;;11.60;99.90;;;;;;5119316;28;20067;-59
2022/04/21 01:06:54;;;;;;;6.65;5.05;;;11.60;99.90;;;;;;5119151;28;20353;-58
2022/04/21 01:09:21;;;;;;;8.68;4.78;;;11.60;99.90;;;;;;5101560;28;20063;-59
2022/04/21 01:11:50;;;;;;;5.68;4.90;;;11.60;99.90;;;;;;5119411;28;20379;-58
2022/04/21 01:14:16;;;;;;;7.65;4.53;;;11.70;99.90;;;;;;5119072;28;20020;-58
2022/04/21 01:16:43;;;;;;;6.25;4.45;;;11.70;99.90;;;;;;5118224;28;20051;-59
2022/04/21 01:19:09;;;;;;;6.32;5.03;;;11.70;99.90;;;;;;5118312;28;20036;-59
2022/04/21 01:21:35;;;;;;;5.45;4.63;;;11.70;99.90;;;;;;5118078;28;20024;-58
2022/04/21 01:24:01;;;;;;;6.40;4.80;;;11.80;99.90;;;;;;5118190;28;20470;-59
2022/04/21 01:26:30;;;;;;;5.47;4.65;;;11.80;99.90;;;;;;5118784;28;20193;-59
2022/04/21 01:28:57;;;;;;;6.68;4.60;;;11.70;99.90;;;;;;5118840;28;20383;-58
2022/04/21 01:31:23;;;;;;;5.90;4.60;;;11.70;99.90;;;;;;5101091;28;20447;-58
2022/04/21 01:33:49;;;;;;;5.97;4.57;;;11.70;99.90;;;;;;5118755;28;20130;-59
2022/04/21 01:36:15;;;;;;;6.80;5.13;;;11.70;99.90;;;;;;5118627;28;20032;-58
2022/04/21 01:41:25;;;;;;;7.00;4.70;;;11.70;99.90;;;;;;5118526;28;20035;-58
2022/04/21 01:43:50;;;;;;;5.88;4.95;;;11.60;99.90;;;;;;5117559;28;20050;-59
2022/04/21 01:46:16;;;;;;;7.30;5.03;;;11.60;99.90;;;;;;5118317;28;20043;-58
2022/04/21 01:48:42;;;;;;;6.07;4.95;;;11.60;99.90;;;;;;5118423;28;20031;-60
2022/04/21 01:51:08;;;;;;;5.80;4.70;;;11.60;99.90;;;;;;5117633;28;20044;-58
2022/04/21 01:53:34;;;;;;;5.93;4.32;;;11.60;99.90;;;;;;5118287;28;20023;-58
2022/04/21 01:56:00;;;;;;;5.68;4.50;;;11.50;99.90;;;;;;5118136;28;20042;-58
2022/04/21 01:58:26;;;;;;;6.18;4.65;;;11.50;99.90;;;;;;5116841;28;20081;-58
2022/04/21 02:00:52;;;;;;;5.47;4.82;;;11.50;99.90;;;;;;5117559;28;20110;-58
2022/04/21 02:03:18;;;;;;;6.72;4.68;;;11.40;99.90;;;;;;5116451;28;20359;-58
2022/04/21 02:05:44;;;;;;;5.28;4.60;;;11.30;99.90;;;;;;5118161;28;20379;-59
2022/04/21 02:08:10;;;;;;;5.15;4.50;;;11.20;99.90;;;;;;5117220;28;20043;-59
2022/04/21 02:10:36;;;;;;;5.18;4.63;;;11.10;99.90;;;;;;5116648;28;20036;-58
2022/04/21 02:13:02;;;;;;;7.43;5.00;;;11.00;99.90;;;;;;5117846;28;20031;-58
2022/04/21 02:15:28;;;;;;;6.85;4.90;;;11.00;99.90;;;;;;5118292;28;20031;-58
2022/04/21 02:17:54;;;;;;;7.35;4.95;;;10.90;99.90;;;;;;5117770;28;20042;-58
2022/04/21 02:20:20;;;;;;;6.07;5.20;;;10.80;99.90;;;;;;5117845;28;20418;-59
2022/04/21 02:22:47;;;;;;;5.40;4.85;;;10.70;99.90;;;;;;5117806;28;20027;-58
2022/04/21 02:25:15;;;;;;;6.40;5.20;;;10.70;99.90;;;;;;5117626;28;20383;-58
2022/04/21 02:27:49;;;;;;;5.55;4.80;;;10.70;99.90;;;;;;5117843;28;20048;-58
2022/04/21 02:30:17;;;;;;;9.25;5.85;;;10.70;99.90;;;;;;5116923;28;20023;-58
2022/04/21 02:32:43;;;;;;;7.85;5.22;;;10.70;99.90;;;;;;5117553;28;20015;-58
2022/04/21 02:35:10;;;;;;;6.00;5.38;;;10.80;99.90;;;;;;5116671;28;20038;-58
2022/04/21 02:37:40;;;;;;;6.75;5.13;;;10.80;99.90;;;;;;5117624;28;20038;-58
2022/04/21 02:40:08;;;;;;;7.53;5.28;;;10.70;99.90;;;;;;5117549;28;20035;-58
2022/04/21 02:42:40;;;;;;;7.72;5.35;;;10.60;99.90;;;;;;5116823;28;20066;-59
2022/04/21 02:45:11;;;;;;;8.02;5.18;;;10.50;99.90;;;;;;5116455;28;20279;-58
2022/04/21 02:47:39;;;;;;;8.50;5.15;;;10.50;99.90;;;;;;5116778;28;20051;-58
2022/04/21 02:50:09;;;;;;;8.30;5.90;;;10.40;99.90;;;;;;5116587;28;20028;-59
2022/04/21 02:52:39;;;;;;;6.68;5.43;;;10.30;99.90;;;;;;5117480;28;20035;-59
2022/04/21 02:57:51;;;;;;;8.07;5.13;;;10.40;99.90;;;;;;5117703;28;20032;-59
2022/04/21 03:00:17;;;;;;;6.40;5.18;;;10.50;99.90;;;;;;5117567;28;20309;-59
2022/04/21 03:02:43;;;;;;;8.20;5.20;;;10.40;99.90;;;;;;5117248;28;20039;-59
2022/04/21 03:05:09;;;;;;;6.80;5.57;;;10.50;99.90;;;;;;5116479;28;20279;-59
2022/04/21 03:07:34;;;;;;;5.82;5.32;;;10.50;99.90;;;;;;5117292;28;20300;-59
2022/04/21 03:10:00;;;;;;;6.43;5.25;;;10.40;99.90;;;;;;5099523;28;20051;-59
2022/04/21 03:12:28;;;;;;;7.38;5.60;;;10.40;99.90;;;;;;5116545;28;20119;-59
2022/04/21 03:14:55;;;;;;;6.68;5.70;;;10.50;99.90;;;;;;5117138;28;20310;-59
2022/04/21 03:17:22;;;;;;;6.40;5.22;;;10.40;99.90;;;;;;5117116;28;20160;-59
2022/04/21 03:19:47;;;;;;;8.55;6.07;;;10.30;99.90;;;;;;5117157;28;20129;-59
2022/04/21 03:25:06;;;;;;;7.53;5.35;;;10.20;99.90;;;;;;5121039;28;20041;-59
2022/04/21 03:27:36;;;;;;;7.25;5.50;;;10.10;99.90;;;;;;5120186;28;20066;-59
2022/04/21 03:30:08;;;;;;;7.55;5.85;;;10.10;99.90;;;;;;5120452;28;20023;-59
2022/04/21 03:32:35;;;;;;;7.78;5.70;;;10.00;99.90;;;;;;5121157;28;20098;-59
2022/04/21 03:35:01;;;;;;;7.82;6.03;;;10.00;99.90;;;;;;5121623;28;20024;-59
2022/04/21 03:37:27;;;;;;;8.90;6.15;;;9.90;99.90;;;;;;5120994;28;20032;-59
2022/04/21 03:39:53;;;;;;;7.60;5.32;;;9.90;99.90;;;;;;5120996;28;20107;-59
2022/04/21 03:42:26;;;;;;;7.82;6.03;;;9.90;99.90;;;;;;5120153;28;20024;-59
2022/04/21 03:44:52;;;;;;;6.65;5.65;;;9.90;99.90;;;;;;5119826;28;20047;-59
2022/04/21 03:47:19;;;;;;;8.35;5.65;;;9.90;99.90;;;;;;5120786;28;20020;-58
2022/04/21 03:49:46;;;;;;;9.57;6.10;;;9.90;99.90;;;;;;5119952;28;20039;-58
2022/04/21 03:52:12;;;;;;;9.02;5.70;;;9.80;99.90;;;;;;5120740;28;20084;-58
2022/04/21 03:54:39;;;;;;;8.90;6.30;;;9.80;99.90;;;;;;5120913;28;20035;-58
2022/04/21 03:57:05;;;;;;;7.15;6.00;;;9.80;99.90;;;;;;5120614;28;20367;-58
2022/04/21 03:59:32;;;;;;;7.57;5.72;;;9.80;99.90;;;;;;5120447;28;20414;-58
2022/04/21 04:02:04;;;;;;;8.73;6.30;;;9.80;99.90;;;;;;5120439;28;20086;-59
2022/04/21 04:04:35;;;;;;;7.30;6.55;;;9.70;99.90;;;;;;5120512;28;20020;-58
2022/04/21 04:12:35;;;;;;;8.18;6.22;;;9.70;99.90;;;;;;5120562;28;20306;-58
2022/04/21 04:15:02;;;;;;;8.57;6.32;;;9.70;99.90;;;;;;5120450;28;20414;-58
2022/04/21 04:17:28;;;;;;;9.85;6.55;;;9.50;99.90;;;;;;5120169;28;20024;-58
2022/04/21 04:19:54;;;;;;;8.13;6.25;;;9.50;99.90;;;;;;5119387;28;20031;-58
2022/04/21 04:22:20;;;;;;;8.25;5.82;;;9.50;99.90;;;;;;5120103;28;20063;-58
2022/04/21 04:24:46;;;;;;;7.15;6.45;;;9.50;99.90;;;;;;5119935;28;20028;-58
2022/04/21 04:27:12;;;;;;;7.15;6.18;;;9.40;99.90;;;;;;5119177;28;20414;-58
2022/04/21 04:29:38;;;;;;;7.57;6.40;;;9.50;99.90;;;;;;5119199;28;20027;-58
2022/04/21 04:32:04;;;;;;;7.40;6.60;;;9.50;99.90;;;;;;5119942;28;20036;-59
2022/04/21 04:34:30;;;;;;;8.80;6.45;;;9.50;99.90;;;;;;5118585;28;20032;-59
2022/04/21 04:36:56;;;;;;;11.15;6.78;;;9.40;99.90;;;;;;5119064;28;20036;-59
2022/04/21 04:39:21;;;;;;;8.23;6.68;;;9.50;99.90;;;;;;5120824;28;20386;-58
2022/04/21 04:44:32;;;;;;;8.43;6.53;;;9.50;99.90;;;;;;5118754;28;20134;-59
2022/04/21 04:46:57;;;;;;;7.60;6.57;;;9.60;99.90;;;;;;5118687;28;20131;-59
2022/04/21 04:49:24;;;;;;;8.10;6.60;;;9.60;99.90;;;;;;5119283;28;20027;-59
2022/04/21 04:51:50;;;;;;;6.88;6.15;;;9.70;99.90;;;;;;5119417;28;20028;-60
2022/04/21 04:54:17;;;;;;;7.32;6.63;;;9.70;99.90;;;;;;5119527;28;20351;-59
2022/04/21 04:56:44;;;;;;;9.40;6.90;;;9.80;99.90;;;;;;5119264;28;20065;-59
2022/04/21 04:59:11;;;;;;;10.40;7.03;;;9.70;99.90;;;;;;5118561;28;20036;-59
2022/04/21 05:01:41;;;;;;;10.00;6.57;;;9.70;99.90;;;;;;5119457;28;20116;-59
2022/04/21 05:04:11;;;;;;;7.70;6.90;;;9.70;99.90;;;;;;5119495;28;20035;-59
2022/04/21 05:06:42;;;;;;;8.05;6.78;;;9.70;99.90;;;;;;5119277;28;20032;-58
2022/04/21 05:09:10;;;;;;;10.27;6.85;;;9.70;99.90;;;;;;5118526;28;20032;-59
2022/04/21 05:11:40;;;;;;;9.27;6.85;;;9.70;99.90;;;;;;5118396;28;20036;-58
2022/04/21 05:14:09;;;;;;;7.82;7.00;;;9.80;99.90;;;;;;5119325;27;20028;-59
2022/04/21 05:16:37;;;;;;;12.77;7.03;;;9.80;99.90;;;;;;5118355;28;20051;-59
2022/04/21 05:19:04;;;;;;;8.02;6.70;;;9.80;99.90;;;;;;5118424;28;20308;-59
2022/04/21 05:21:30;;;;;;;11.20;6.85;;;9.90;99.90;;;;;;5118750;28;20068;-59
2022/04/21 05:23:57;;;;;;;7.57;6.78;;;10.00;99.90;;;;;;5118288;28;20084;-60
2022/04/21 05:26:25;;;;;;;8.35;6.82;;;9.90;99.90;;;;;;5119391;28;20282;-57
2022/04/21 05:28:54;;;;;;;9.73;6.80;;;10.00;99.90;;;;;;5118155;28;20147;-59
2022/04/21 05:31:21;;;;;;;10.80;7.40;;;10.00;99.90;;;;;;5118351;28;20050;-59
2022/04/21 05:33:47;;;;;;;9.07;6.65;;;10.00;99.90;;;;;;5118401;28;20102;-59
2022/04/21 05:36:14;;;;;;;8.45;7.20;;;10.10;99.90;;;;;;5119138;28;20039;-59
2022/04/21 05:38:40;;;;;;;11.27;7.20;;;10.00;99.90;;;;;;5118852;28;20039;-59
2022/04/21 05:41:06;;;;;;;7.28;6.45;;;10.50;99.90;;;;;;5118290;28;20040;-59
2022/04/21 05:43:44;;;;;;;7.65;6.55;;;10.30;99.90;;;;;;5118556;28;20027;-59
2022/04/21 05:46:14;;;;;;;6.75;6.03;;;10.30;99.90;;;;;;5117380;28;20130;-59
2022/04/21 05:48:41;;;;;;;7.47;6.72;;;10.30;99.90;;;;;;5117706;28;20081;-59
2022/04/21 05:51:09;;;;;;;7.63;6.40;;;10.30;99.90;;;;;;5117735;28;20024;-59
2022/04/21 05:53:38;;;;;;;9.15;6.63;;;10.30;99.90;;;;;;5117565;28;20102;-59
2022/04/21 05:56:06;;;;;;;9.38;6.68;;;10.40;99.90;;;;;;5118732;28;20074;-59
2022/04/21 05:58:32;;;;;;;7.22;6.53;;;10.40;99.90;;;;;;5118198;28;20023;-59
2022/04/21 06:00:59;;;;;;;8.15;6.18;;;10.40;99.90;;;;;;5117481;28;20080;-59
2022/04/21 06:03:26;;;;;;;8.55;6.90;;;10.40;99.90;;;;;;5117354;28;20457;-59
2022/04/21 06:05:52;;;;;;;11.88;7.10;;;10.50;99.90;;;;;;5117990;28;20027;-59
2022/04/21 06:08:18;;;;;;;9.05;5.97;;;10.60;99.90;;;;;;5118403;28;20024;-59
2022/04/21 06:10:44;;;;;;;8.05;6.15;;;10.70;99.90;;;;;;5118642;28;20038;-58
2022/04/21 06:13:12;;;;;;;9.05;6.57;;;10.90;99.90;;;;;;5118034;28;20027;-59
2022/04/21 06:15:43;;;;;;;7.22;6.53;;;10.90;99.90;;;;;;5117891;28;20039;-58
2022/04/21 06:18:09;;;;;;;8.20;6.40;;;10.80;99.90;;;;;;5118661;28;20039;-58
2022/04/21 06:20:35;;;;;;;8.13;6.20;;;10.80;99.90;;;;;;5117959;28;20043;-58
2022/04/21 06:23:01;;;;;;;9.23;6.60;;;11.00;99.90;;;;;;5117028;28;20273;-59
2022/04/21 06:25:27;;;;;;;9.35;5.93;;;11.50;99.90;;;;;;5117800;28;20114;-60
2022/04/21 06:27:52;;;;;;;7.65;6.13;;;11.40;99.90;;;;;;5117082;28;20280;-59
2022/04/21 06:30:19;;;;;;;6.45;5.85;;;11.50;99.90;;;;;;5117738;28;20036;-59
2022/04/21 06:32:45;;;;;;;7.95;6.43;;;11.60;99.90;;;;;;5117565;28;20031;-59
2022/04/21 06:35:11;;;;;;;7.97;6.13;;;11.50;99.90;;;;;;5117675;28;20024;-59
2022/04/21 06:37:37;;;;;;;10.70;6.18;;;11.60;99.90;;;;;;5117685;28;20020;-63
2022/04/21 06:40:06;;;;;;;7.50;6.30;;;11.60;99.90;;;;;;5116922;28;20038;-59
2022/04/21 06:42:32;;;;;;;8.18;5.72;;;11.80;99.90;;;;;;5117448;28;20039;-57
2022/04/21 06:50:26;;;;;;;6.22;5.47;;;12.00;99.90;;;;;;5117300;28;20044;-58
2022/04/21 06:52:52;;;;;;;6.47;5.72;;;12.10;99.90;;;;;;5116558;28;20032;-58
2022/04/21 06:55:18;;;;;;;6.93;5.55;;;12.30;99.90;;;;;;5117667;28;20404;-57
2022/04/21 06:57:43;;;;;;;8.02;6.15;;;12.40;99.90;;;;;;5117080;28;20028;-58
2022/04/21 07:00:10;;;;;;;8.82;5.68;;;12.40;99.90;;;;;;5117283;28;20077;-58
2022/04/21 07:02:38;;;;;;;7.22;5.78;;;12.60;99.90;;;;;;5117313;28;20034;-57
2022/04/21 07:05:05;;;;;;;6.10;5.35;;;12.60;99.90;;;;;;5116547;28;20028;-57
2022/04/21 07:07:31;;;;;;;6.18;5.43;;;12.70;99.90;;;;;;5116608;28;20291;-58
2022/04/21 07:09:57;;;;;;;6.85;5.07;;;12.70;99.90;;;;;;5117235;28;20023;-58
2022/04/21 07:12:30;;;;;;;8.38;5.18;;;12.80;99.90;;;;;;5117115;28;20036;-58
2022/04/21 07:14:57;;;;;;;5.70;5.10;;;12.80;99.90;;;;;;5117213;28;20019;-57
2022/04/21 07:17:24;;;;;;;8.13;5.18;;;12.90;99.90;;;;;;5117444;28;20407;-57
2022/04/21 07:19:49;;;;;;;6.78;5.22;;;13.00;99.90;;;;;;5116447;28;20023;-57
2022/04/21 07:22:15;;;;;;;6.00;5.40;;;13.10;99.90;;;;;;5117146;28;20387;-58
2022/04/21 07:24:41;;;;;;;7.55;5.45;;;13.20;99.90;;;;;;5117087;28;20043;-57
2022/04/21 07:27:07;;;;;;;6.65;5.05;;;13.30;99.90;;;;;;5117054;28;20036;-58
2022/04/21 07:29:34;;;;;;;7.55;4.90;;;13.40;99.90;;;;;;5116326;28;20032;-58
2022/04/21 07:32:00;;;;;;;5.88;5.32;;;13.50;99.90;;;;;;5117018;28;20026;-57
2022/04/21 07:34:26;;;;;;;6.97;5.10;;;13.60;99.90;;;;;;5117031;28;20395;-59
2022/04/21 07:36:51;;;;;;;6.40;5.72;;;13.50;99.90;;;;;;5116261;28;20062;-58
2022/04/21 07:39:18;;;;;;;9.13;5.55;;;13.60;99.90;;;;;;5117218;28;20032;-58
2022/04/21 07:41:44;;;;;;;7.28;5.13;;;13.60;99.90;;;;;;5116441;28;20032;-58
2022/04/21 07:44:10;;;;;;;7.93;4.97;;;13.80;99.90;;;;;;5116795;28;20038;-58
2022/04/21 07:46:36;;;;;;;6.43;5.60;;;13.80;99.90;;;;;;5099653;28;20035;-58
2022/04/21 07:51:47;;;;;;;7.35;5.00;;;13.80;99.90;;;;;;5116154;28;20032;-58
2022/04/21 07:54:13;;;;;;;6.20;4.95;;;13.90;99.90;;;;;;5116830;28;20126;-59
2022/04/21 07:56:38;;;;;;;7.88;4.82;;;13.90;99.90;;;;;;5116735;28;20106;-58
2022/04/21 07:59:04;;;;;;;4.90;4.43;;;14.00;99.90;;;;;;5099559;28;20032;-58
2022/04/21 08:01:30;;;;;;;8.25;4.70;;;14.00;99.90;;;;;;5099115;28;20051;-59
2022/04/21 08:04:01;;;;;;;4.82;4.10;;;14.00;99.90;;;;;;5116737;28;20027;-58
2022/04/21 08:06:28;;;;;;;4.60;4.20;;;14.10;99.90;;;;;;5117061;28;20039;-58
2022/04/21 08:08:55;;;;;;;7.72;4.30;;;14.20;99.90;;;;;;5117042;28;20091;-58
2022/04/21 08:11:21;;;;;;;8.32;4.47;;;14.20;99.90;;;;;;5120330;28;20027;-59
2022/04/21 08:13:47;;;;;;;4.40;3.90;;;14.30;99.90;;;;;;5120342;28;20102;-59
2022/04/21 08:16:13;;;;;;;7.40;4.20;;;14.30;99.90;;;;;;5119580;28;20032;-58
2022/04/21 08:18:39;;;;;;;9.00;4.32;;;14.50;99.90;;;;;;5120271;28;20051;-59
2022/04/21 08:21:06;;;;;;;5.88;4.18;;;14.70;99.90;;;;;;5120681;28;20055;-58
2022/04/21 08:23:36;;;;;;;5.85;3.83;;;14.80;99.90;;;;;;5120544;28;20027;-59
2022/04/21 08:34:16;;;;;;;5.50;3.88;;;15.00;99.90;;;;;;5120194;28;20047;-59
2022/04/21 08:36:42;;;;;;;4.25;3.70;;;15.00;99.90;;;;;;5119771;28;20059;-58
2022/04/21 08:39:08;;;;;;;6.18;3.65;;;15.00;99.90;;;;;;5119782;28;20101;-57
2022/04/21 08:41:35;;;;;;;4.38;3.92;;;15.20;99.90;;;;;;5119105;28;20036;-58
2022/04/21 08:44:03;;;;;;;4.45;3.55;;;15.20;99.90;;;;;;5119904;28;20047;-57
2022/04/21 08:46:32;;;;;;;5.22;3.63;;;15.30;99.90;;;;;;5118900;28;20097;-57
2022/04/21 08:49:01;;;;;;;6.65;4.05;;;15.50;99.90;;;;;;5119596;28;20039;-58
2022/04/21 08:51:28;;;;;;;6.28;4.00;;;15.60;99.90;;;;;;5119923;28;20035;-59
2022/04/21 08:53:55;;;;;;;4.90;3.97;;;15.70;99.90;;;;;;5119567;28;20038;-58
2022/04/21 08:56:22;;;;;;;5.38;3.72;;;15.80;99.90;;;;;;5118767;28;20035;-58
2022/04/21 08:58:48;;;;;;;7.53;3.90;;;16.00;99.90;;;;;;5119831;28;20078;-59
2022/04/21 09:01:16;;;;;;;6.13;3.97;;;16.00;99.90;;;;;;5119422;28;20063;-57
2022/04/21 09:03:41;;;;;;;6.32;4.07;;;16.10;99.90;;;;;;5119192;28;20406;-58
2022/04/21 09:06:09;;;;;;;5.40;3.83;;;16.10;99.90;;;;;;5118537;28;20082;-58
2022/04/21 09:08:35;;;;;;;4.97;3.72;;;16.10;99.90;;;;;;5119538;28;20024;-58
2022/04/21 09:11:09;;;;;;;5.97;3.75;;;16.10;99.90;;;;;;5119671;28;20103;-59
2022/04/21 09:13:39;;;;;;;4.40;3.13;;;16.20;99.90;;;;;;5119200;28;20027;-58
2022/04/21 09:16:10;;;;;;;5.55;3.13;;;16.30;99.90;;;;;;5118616;28;20024;-58
2022/04/21 09:18:45;;;;;;;6.10;3.50;;;16.30;99.90;;;;;;5119056;28;20043;-59
2022/04/21 09:21:16;;;;;;;4.75;2.70;;;16.40;99.90;;;;;;5119417;28;20085;-59
2022/04/21 09:23:47;;;;;;;4.63;3.95;;;16.40;99.90;;;;;;5118981;28;20117;-59
2022/04/21 09:26:15;;;;;;;6.38;3.97;;;16.50;99.90;;;;;;5118898;28;20035;-59
2022/04/21 09:28:41;;;;;;;4.32;2.90;;;16.50;99.90;;;;;;5101187;28;20062;-59
2022/04/21 09:31:09;;;;;;;4.07;3.05;;;16.70;99.90;;;;;;5101069;28;20063;-59
2022/04/21 09:33:40;;;;;;;3.47;2.42;;;16.90;99.90;;;;;;5119220;28;20055;-59
2022/04/21 09:36:07;;;;;;;5.50;2.80;;;16.90;99.90;;;;;;5118701;28;20043;-59
2022/04/21 09:38:34;;;;;;;4.97;3.20;;;17.00;99.90;;;;;;5118678;28;20076;-59
2022/04/21 09:41:13;;;;;;;3.50;2.70;;;17.00;99.90;;;;;;5118408;28;20039;-59
2022/04/21 09:43:41;;;;;;;3.67;2.70;;;17.10;99.90;;;;;;5119109;28;20039;-58
2022/04/21 09:46:12;;;;;;;6.13;2.47;;;17.10;99.90;;;;;;5118354;28;20431;-59
2022/04/21 09:48:38;;;;;;;5.18;3.30;;;17.30;99.90;;;;;;5118330;28;20023;-58
2022/04/21 09:51:28;;;;;;;6.55;3.25;;;17.20;99.90;;;;;;5118065;28;20118;-59
2022/04/21 09:53:58;;;;;;;4.68;3.08;;;17.20;99.90;;;;;;5107694;28;20036;-60
2022/04/21 09:56:40;;;;;;;6.57;3.30;;;17.10;99.90;;;;;;5118260;28;20110;-59
2022/04/21 09:59:08;;;;;;;7.22;3.30;;;17.00;99.90;;;;;;5118181;28;20167;-58
2022/04/21 10:01:41;;;;;;;4.45;3.05;;;17.10;99.90;;;;;;5117541;28;20024;-60
2022/04/21 10:04:08;;;;;;;3.42;3.10;;;17.40;99.90;;;;;;5117455;28;20323;-60
2022/04/21 10:06:37;;;;;;;4.13;2.85;;;17.60;99.90;;;;;;5118005;28;20046;-63
2022/04/21 10:09:03;;;;;;;4.85;2.95;;;17.60;99.90;;;;;;5118079;28;20344;-59
2022/04/21 10:11:30;;;;;;;4.78;3.17;;;17.60;99.80;;;;;;5117237;28;20047;-59
2022/04/21 10:13:56;;;;;;;5.32;3.00;;;17.80;99.30;;;;;;5117854;28;20261;-59
2022/04/21 10:16:23;;;;;;;6.00;3.05;;;17.90;98.90;;;;;;5117129;28;20110;-59
2022/04/21 10:18:52;;;;;;;6.95;3.17;;;18.00;98.70;;;;;;5117124;28;20028;-59
2022/04/21 10:21:28;;;;;;;4.10;2.88;;;18.10;97.20;;;;;;5117163;28;20048;-59
2022/04/21 10:23:54;;;;;;;3.90;3.00;;;18.00;96.60;;;;;;5117868;28;20063;-59
2022/04/21 10:26:40;;;;;;;3.75;3.30;;;18.10;96.40;;;;;;5117678;28;20104;-59
2022/04/21 10:29:27;;;;;;;4.65;2.90;;;18.00;95.90;;;;;;5117094;28;20063;-59
2022/04/21 10:31:59;;;;;;;5.97;3.08;;;18.40;95.90;;;;;;5116817;28;20039;-59
2022/04/21 10:34:38;;;;;;;6.35;3.13;;;18.50;95.70;;;;;;5117999;28;20399;-59
2022/04/21 10:37:21;;;;;;;4.72;2.90;;;18.40;94.90;;;;;;5117895;28;20104;-59
2022/04/21 10:40:07;;;;;;;3.28;2.63;;;18.50;94.50;;;;;;5117903;28;20078;-59
2022/04/21 10:42:52;;;;;;;7.18;2.63;;;18.60;94.30;;;;;;5117528;28;20042;-58
2022/04/21 10:45:26;;;;;;;7.03;2.78;;;19.00;94.20;;;;;;5117233;28;20046;-59
2022/04/21 10:48:04;;;;;;;4.43;2.50;;;19.50;93.20;;;;;;5117593;28;20039;-59
2022/04/21 10:50:31;;;;;;;3.00;2.33;;;20.60;91.70;;;;;;5116780;28;20032;-59
2022/04/21 10:58:35;;;;;;;3.70;2.80;;;22.90;80.80;;;;;;5118044;28;20188;-59
2022/04/21 11:01:31;;;;;;;5.35;3.00;;;23.60;78.40;;;;;;5117358;28;20042;-59
2022/04/21 11:04:12;;;;;;;5.57;3.05;;;23.90;77.30;;;;;;5117405;28;20040;-59
2022/04/21 11:06:40;;;;;;;8.30;3.70;;;24.20;76.50;;;;;;5099987;28;20303;-58
2022/04/21 11:09:06;;;;;;;3.92;2.97;;;24.10;74.50;;;;;;5117730;28;20384;-58
2022/04/21 11:11:53;;;;;;;7.47;3.30;;;24.40;73.40;;;;;;5116861;28;20299;-58
2022/04/21 11:14:29;;;;;;;5.88;2.90;;;23.90;73.80;;;;;;5117639;28;20051;-58
2022/04/21 11:16:59;;;;;;;5.22;2.85;;;24.20;71.80;;;;;;5117312;28;20035;-58
2022/04/21 11:19:49;;;;;;;5.10;3.05;;;24.80;71.10;;;;;;5117193;28;20031;-58
2022/04/21 11:22:36;;;;;;;3.63;2.95;;;25.70;67.60;;;;;;5117279;28;20039;-59
2022/04/21 11:25:04;;;;;;;4.30;2.10;;;27.20;64.60;;;;;;5117254;28;20024;-59
2022/04/21 11:27:31;;;;;;;3.80;2.13;;;26.60;59.50;;;;;;5117170;28;20280;-59
2022/04/21 11:30:04;;;;;;;6.55;2.58;;;26.60;60.80;;;;;;5117166;28;20042;-59
2022/04/21 11:32:30;;;;;;;2.88;2.33;;;27.30;59.30;;;;;;5100235;28;20045;-60
2022/04/21 11:35:02;;;;;;;2.97;2.40;;;27.00;58.30;;;;;;5116412;28;20028;-59
2022/04/21 11:37:57;;;;;;;3.08;2.28;;;26.80;57.90;;;;;;5116379;28;20418;-59
2022/04/21 11:40:24;;;;;;;6.32;2.55;;;26.30;58.00;;;;;;5117049;28;20046;-59
2022/04/21 11:42:51;;;;;;;9.05;2.50;;;26.20;58.20;;;;;;5117012;28;20030;-60
2022/04/21 11:45:23;;;;;;;3.95;1.95;;;26.20;56.20;;;;;;5119245;28;20040;-60
2022/04/21 11:47:49;;;;;;;5.38;2.50;;;26.10;57.20;;;;;;5120898;28;20429;-59
2022/04/21 11:50:28;;;;;;;2.15;1.90;;;26.50;56.30;;;;;;5120806;28;20032;-59
2022/04/21 11:52:55;;;;;;;3.58;2.03;;;27.20;56.40;;;;;;5102990;28;20119;-59
2022/04/21 11:55:27;;;;;;;3.05;1.70;;;27.80;54.70;;;;;;5120891;28;20040;-59
2022/04/21 11:57:53;;;;;;;4.53;2.13;;;28.00;53.40;;;;;;5120744;28;20032;-59
2022/04/21 12:06:28;;;;;;;4.20;2.20;;;28.00;53.20;;;;;;5120772;28;20042;-59
2022/04/21 12:08:44;;;;;;;5.28;1.98;;;26.70;54.40;;;;;;5120997;28;20024;-58
2022/04/21 12:11:12;;;;;;;4.68;1.75;;;26.60;55.80;;;;;;5120632;28;20027;-59
2022/04/21 12:13:38;;;;;;;2.30;1.60;;;27.20;54.70;;;;;;5120426;28;20053;-59
2022/04/21 12:16:05;;;;;;;2.72;2.10;;;28.40;53.80;;;;;;5120399;28;20027;-59
2022/04/21 12:18:48;;;;;;;2.85;1.83;;;28.50;52.90;;;;;;5120278;28;20051;-59
2022/04/21 12:21:14;;;;;;;9.73;2.25;;;29.00;51.70;;;;;;5120771;28;20066;-60
2022/04/21 12:23:40;;;;;;;3.22;2.00;;;28.80;51.30;;;;;;5120113;28;20081;-59
2022/04/21 12:26:07;;;;;;;5.03;2.40;;;28.30;52.80;;;;;;5120608;28;20035;-58
2022/04/21 12:28:47;;;;;;;3.80;2.40;;;28.20;52.10;;;;;;5120744;28;20066;-59
2022/04/21 12:31:18;;;;;;;1.92;1.80;;;28.60;51.60;;;;;;5120506;28;20019;-59
2022/04/21 12:33:44;;;;;;;6.00;1.52;;;29.50;50.00;;;;;;5120219;28;20059;-58
2022/04/21 12:36:10;;;;;;;2.35;1.30;;;30.40;48.60;;;;;;5119777;28;20032;-60
2022/04/21 12:38:54;;;;;;;2.50;1.45;;;28.90;48.10;;;;;;5119920;28;20032;-58
2022/04/21 12:41:20;;;;;;;2.80;1.77;;;28.80;47.90;;;;;;5120109;28;20163;-59
2022/04/21 12:43:50;;;;;;;4.65;1.90;;;29.00;47.00;;;;;;5118970;28;20435;-59
2022/04/21 12:46:16;;;;;;;2.47;1.65;;;28.70;47.20;;;;;;5118920;28;20027;-59
2022/04/21 12:48:48;;;;;;;4.47;2.10;;;28.20;47.20;;;;;;5119704;28;20023;-59
2022/04/21 12:51:19;;;;;;;;;;;28.10;46.80;;;;;;5102323;28;20126;-58
2022/04/21 12:53:57;;;;;;;2.03;1.50;;;29.20;45.60;;;;;;5119653;28;20235;-60
2022/04/21 12:56:36;;;;;;;1.92;1.40;;;30.20;43.60;;;;;;5119121;28;20077;-59
2022/04/21 12:59:03;;;;;;;4.88;2.10;;;30.40;42.80;;;;;;5119548;28;20039;-59
2022/04/21 13:01:29;;;;;;;3.10;1.60;;;30.20;43.00;;;;;;5119529;28;20032;-59
2022/04/21 13:03:59;;;;;;;3.78;1.60;;;29.40;44.00;;;;;;5119419;28;20462;-59
2022/04/21 13:06:30;;;;;;;5.55;1.75;;;29.80;42.40;;;;;;5119231;28;20051;-59
2022/04/21 13:08:57;;;;;;;2.83;1.85;;;31.20;41.10;;;;;;5119390;28;20348;-59
2022/04/21 13:11:23;;;;;;;4.00;1.60;;;31.10;40.30;;;;;;5119251;28;20415;-60
2022/04/21 13:13:51;;;;;;;3.13;1.77;;;31.10;40.40;;;;;;5118499;28;20039;-61
2022/04/21 13:16:18;;;;;;;2.70;1.60;;;30.70;39.70;;;;;;5119257;28;20027;-61
2022/04/21 13:18:45;;;;;;;6.05;1.45;;;30.80;39.30;;;;;;5118544;28;20050;-61
2022/04/21 13:23:55;;;;;;;3.90;1.60;;;31.50;36.90;;;;;;5118217;28;20311;-61
2022/04/21 13:26:28;;;;;;;3.50;1.70;;;29.90;37.90;;;;;;5119150;28;20027;-61
2022/04/21 13:28:58;;;;;;;3.97;1.80;;;30.40;39.10;;;;;;5118989;28;20032;-61
2022/04/21 13:34:09;;;;;;;1.60;1.50;;;31.70;37.50;;;;;;5103642;28;20036;-61
2022/04/21 13:36:38;;;;;;;4.63;2.00;;;32.60;38.80;;;;;;5117933;28;20032;-60
2022/04/21 13:39:05;;;;;;;3.80;1.73;;;33.80;38.00;;;;;;5118638;28;20047;-60
2022/04/21 13:41:31;;;;;;;1.90;1.80;;;33.70;37.30;;;;;;5100936;28;20066;-60
2022/04/21 13:43:57;;;;;;;1.70;1.60;;;34.40;36.60;;;;;;5117562;28;20327;-60
2022/04/21 13:46:23;;;;;;;3.60;1.70;;;34.10;36.30;;;;;;5118892;28;20047;-60
2022/04/21 13:48:49;;;;;;;6.05;1.67;;;33.50;37.10;;;;;;5117816;28;20074;-60